Metar Cercanos

 

LEPA - Palma De Mallorc, Spain
Distance from station: ONO 38km
Actualización: Mon, 24-Jun-2024 3:00pm CEST
Muy nuboso
Muy nuboso
 Viento del SO
Viento: SO 17 km/h
Temperatura: 25°C
Rocío: 16°C
Humedad: 57%
Barómetro: 1014 hPa
Clouds: Muy nuboso
Visibility: 10 km
Cloud details: Few Clouds 610 m
Muy nuboso 1981 m
2024/06/24 13:00 LEPA 241300Z 23009KT 200V260 9999 FEW020 BKN065 25/16 Q1014 NOSIG
LEMH - Mahon/Menorca Is, Spain
Distance from station: ENE 105km
Actualización: Mon, 24-Jun-2024 3:00pm CEST
Few Clouds
Few Clouds
 Viento del N
Viento: N 26 km/h
Temperatura: 26°C
Rocío: 13°C
Humedad: 45%
Barómetro: 1013 hPa
Clouds: Few Clouds
Visibility: 10 km
Cloud details: Few Clouds 1280 m
2024/06/24 13:00 LEMH 241300Z 36014KT 320V040 9999 FEW042 26/13 Q1013
 
LEIB - Ibiza/Es Codola, Spain
Distance from station: OSO 165km
Actualización: Mon, 24-Jun-2024 3:00pm CEST
Few Clouds
Few Clouds
 Viento del E
Viento: E 13 km/h
Temperatura: 25°C
Rocío: 15°C
Humedad: 54%
Barómetro: 1014 hPa
Clouds: Few Clouds
Visibility: 10 km
Cloud details: Few Clouds 1067 m
2024/06/24 13:00 LEIB 241300Z 09007KT 050V170 9999 FEW035 25/15 Q1014 NOSIG
LEBL - Barcelona Airpor, Spain
Distance from station: NNO 225km
Actualización: Mon, 24-Jun-2024 3:00pm CEST
Few Clouds
Few Clouds
 Viento del SSO
Viento: SSO 19 km/h
Temperatura: 25°C
Rocío: 15°C
Humedad: 54%
Barómetro: 1013 hPa
Clouds: Few Clouds
Visibility: 10 km
Cloud details: Few Clouds 914 m
2024/06/24 13:00 LEBL 241300Z 20010KT 160V220 9999 FEW030 25/15 Q1013 NOSIG
 
LEVC - Valencia (civ/Mi, Spain
Distance from station: NO 188km
Actualización: Mon, 24-Jun-2024 3:00pm CEST
Parcialmente nuboso
Parcialmente nuboso
 Viento del SE
Viento: SE 20 km/h
Temperatura: 27°C
Indice Calor: 28°C
Rocío: 17°C
Humedad: 54%
Barómetro: 1012 hPa
Clouds: Parcialmente nuboso
Visibility: 10 km
Cloud details: Few Clouds 610 m
Parcialmente nuboso 1158 m
2024/06/24 13:00 LEVC 241300Z 14011KT 100V170 9999 FEW020 SCT038 27/17 Q1012 NOSIG
LEGE - Gerona/Costa Bra, Spain
Distance from station: N 276km
Actualización: Mon, 24-Jun-2024 3:00pm CEST
Muy nuboso
Muy nuboso
 Viento del SE
Viento: SE 19 km/h
Temperatura: 25°C
Rocío: 13°C
Humedad: 47%
Barómetro: 1013 hPa
Clouds: Muy nuboso
Visibility: 10 km
Cloud details: Parcialmente nuboso 1676 m
Muy nuboso 2134 m
2024/06/24 13:00 LEGE 241300Z 14010KT 9999 SCT055 BKN070 25/13 Q1013 NOSIG
 
LEAL - Alicante/El Alte, Spain
Distance from station: OSO 344km
Actualización: Mon, 24-Jun-2024 3:00pm CEST
Parcialmente nuboso
Parcialmente nuboso
 Viento del E
Viento: E 15 km/h
Temperatura: 25°C
Rocío: 17°C
Humedad: 61%
Barómetro: 1013 hPa
Clouds: Parcialmente nuboso
Visibility: 10 km
Cloud details: Few Clouds 853 m
Parcialmente nuboso 1951 m
2024/06/24 13:00 LEAL 241300Z 10008KT 070V160 9999 FEW028 SCT064 25/17 Q1013 NOSIG
LEAM - Almeria Airport, Spain
Distance from station: SSO 56km
Actualización: Mon, 24-Jun-2024 3:00pm CEST
Despejado
Despejado
 Viento del ESE
Viento: ESE 31 km/h
Temperatura: 31°C
Rocío: 15°C
Humedad: 38%
Barómetro: 1011 hPa
Resumen: Despejado
Visibility: greater than 10 km
2024/06/24 13:00 LEAM 241300Z 11017KT 060V150 CAVOK 31/15 Q1011
 
LEZG - Zaragoza (mil/Ci, Spain
Distance from station: NO 431km
Actualización: Mon, 24-Jun-2024 3:00pm CEST
Despejado
Despejado
 Viento del ONO
Viento: ONO 11 km/h
Temperatura: 26°C
Rocío: 12°C
Humedad: 42%
Barómetro: 1013 hPa
Resumen: Despejado
Visibility: greater than 10 km
2024/06/24 13:00 LEZG 241300Z 29006KT 220V010 CAVOK 26/12 Q1013 NOSIG
LEMD - Madrid/Barajas, Spain
Distance from station: ONO 234km
Actualización: Mon, 24-Jun-2024 3:00pm CEST
Despejado
Despejado
 Viento del O
Viento: O 7 km/h
Temperatura: 30°C
Rocío: 11°C
Humedad: 31%
Barómetro: 1013 hPa
Resumen: Despejado
Visibility: greater than 10 km
2024/06/24 13:00 LEMD 241300Z 26004KT CAVOK 30/11 Q1013 NOSIG
 
LEGR - Granada Airport, Spain
Distance from station: OSO 62km
Actualización: Mon, 24-Jun-2024 3:00pm CEST
Few Clouds
Few Clouds
 Viento del NNO
Viento: NNO 11 km/h
Temperatura: 34°C
Rocío: 10°C
Humedad: 23%
Barómetro: 1012 hPa
Clouds: Few Clouds
Visibility: 10 km
Cloud details: Few Clouds 1524 m
2024/06/24 13:00 LEGR 241300Z 34006KT 290V050 9999 FEW050 34/10 Q1012
LEMG - Malaga (civ/Mil), Spain
Distance from station: OSO 227km
Actualización: Mon, 24-Jun-2024 3:00pm CEST
Despejado
Despejado
 Viento del SSE
Viento: SSE 17 km/h
Temperatura: 26°C
Rocío: 13°C
Humedad: 45%
Barómetro: 1013 hPa
Resumen: Despejado
Visibility: greater than 10 km
2024/06/24 13:00 LEMG 241300Z 15009KT 100V200 CAVOK 26/13 Q1013 NOSIG
 
LEZL - Sevilla (civ/Mil, Spain
Distance from station: S 318km
Actualización: Mon, 24-Jun-2024 3:00pm CEST
Despejado
Despejado
 Viento del NO
Viento: NO 7 km/h
Temperatura: 34°C
Rocío: 9°C
Humedad: 21%
Barómetro: 1009 hPa
Resumen: Despejado
Visibility: greater than 10 km
2024/06/24 13:00 LEZL 241300Z 31004KT 220V030 CAVOK 34/09 Q1009 NOSIG
LEVT - Vitoria, Spain
Distance from station: NO 226km
Actualización: Mon, 24-Jun-2024 3:00pm CEST
Parcialmente nuboso
Parcialmente nuboso
 Viento del N
Viento: N 13 km/h
Temperatura: 22°C
Rocío: 13°C
Humedad: 57%
Barómetro: 1015 hPa
Clouds: Parcialmente nuboso
Visibility: 10 km
Cloud details: Parcialmente nuboso 1067 m
2024/06/24 13:00 LEVT 241300Z 01007KT 330V070 9999 SCT035 22/13 Q1015
 
LEBB - Bilbao/Sondica, Spain
Distance from station: NNO 235km
Actualización: Mon, 24-Jun-2024 3:00pm CEST
Parcialmente nuboso
Parcialmente nuboso
 Viento del NE
Viento: NE 13 km/h, Racha: 35 km/h
Temperatura: 25°C
Rocío: 14°C
Humedad: 51%
Barómetro: 1015 hPa
Clouds: Parcialmente nuboso
Visibility: 10 km
Cloud details: Parcialmente nuboso 1463 m
2024/06/24 13:00 LEBB 241300Z 04007G19KT 340V140 9999 SCT048 25/14 Q1015 NOSIG
LESO - San Sebastian/Fu, Spain
Distance from station: N 231km
Actualización: Mon, 24-Jun-2024 3:00pm CEST
Few Clouds
Few Clouds
 Viento del N
Viento: N 9 km/h
Temperatura: 22°C
Rocío: 17°C
Humedad: 73%
Barómetro: 1015 hPa
Clouds: Few Clouds
Visibility: 10 km
Cloud details: Few Clouds 610 m
2024/06/24 13:00 LESO 241300Z 01005KT 320V060 9999 FEW020 22/17 Q1015
 
LEVD - Valladolid(Mil/C, Spain
Distance from station: ONO 239km
Actualización: Mon, 24-Jun-2024 3:00pm CEST
Despejado
Despejado
 Viento del NNE
Viento: NNE 7 km/h
Temperatura: 26°C
Rocío: 11°C
Humedad: 39%
Barómetro: 1015 hPa
Resumen: Despejado
Visibility: greater than 10 km
2024/06/24 13:00 LEVD 241300Z 03004KT CAVOK 26/11 Q1015 NOSIG
LESA - Salamanca (civ/M, Spain
Distance from station: ONO 349km
Actualización: Mon, 24-Jun-2024 3:00pm CEST
Despejado
Despejado
 Viento del NNE
Viento: NNE 9 km/h
Temperatura: 28°C
Indice Calor: 28°C
Rocío: 14°C
Humedad: 42%
Barómetro: 1015 hPa
Resumen: Despejado
Visibility: greater than 10 km
2024/06/24 13:00 LESA 241300Z 03005KT 320V120 CAVOK 28/14 Q1015
 
LEXJ - Santander/Paraya, Spain
Distance from station: NNO 247km
Actualización: Mon, 24-Jun-2024 3:00pm CEST
Few Clouds
Few Clouds
 Viento del NE
Viento: NE 17 km/h, Racha: 39 km/h
Temperatura: 21°C
Rocío: 18°C
Humedad: 83%
Barómetro: 1015 hPa
Clouds: Few Clouds
Visibility: 10 km
Cloud details: Few Clouds 762 m
2024/06/24 13:00 LEXJ 241300Z 05009G21KT 350V130 9999 FEW025 21/18 Q1015
LEAS - Asturias/Aviles, Spain
Distance from station: NO 214km
Actualización: Mon, 24-Jun-2024 3:00pm CEST
Muy nuboso
Muy nuboso
 Viento del E
Viento: E 15 km/h
Temperatura: 21°C
Rocío: 18°C
Humedad: 83%
Barómetro: 1015 hPa
Clouds: Muy nuboso
Visibility: 10 km
Cloud details: Parcialmente nuboso 427 m
Muy nuboso 671 m
2024/06/24 13:00 LEAS 241300Z 08008KT 030V150 9999 SCT014 BKN022 21/18 Q1015 NOSIG
 
LECO - La Coruna/Alvedr, Spain
Distance from station: ONO 222km
Actualización: Mon, 24-Jun-2024 3:00pm CEST
Despejado
Despejado
 Viento del N
Viento: N 11 km/h
Temperatura: 24°C
Rocío: 18°C
Humedad: 69%
Barómetro: 1013 hPa
Resumen: Despejado
Visibility: greater than 10 km
2024/06/24 13:00 LECO 241300Z 36006KT CAVOK 24/18 Q1013 NOSIG
LEVX - Vigo/Peinador, Spain
Distance from station: O 214km
Actualización: Mon, 24-Jun-2024 3:00pm CEST
Few Clouds
Few Clouds
 Viento del varies
Viento: varies 7 km/h
Temperatura: 29°C
Indice Calor: 31°C
Rocío: 20°C
Humedad: 58%
Barómetro: 1012 hPa
Clouds: Few Clouds
Visibility: 10 km
Cloud details: Few Clouds 1067 m
2024/06/24 13:00 LEVX 241300Z VRB04KT 9999 FEW035 29/20 Q1012 NOSIG